createdAt,value
2019-03-13T00:02:07.927Z,96613.80
2019-03-13T00:04:37.681Z,96610.70
2019-03-13T00:07:07.479Z,96613.67
2019-03-13T00:09:37.098Z,96600.44
2019-03-13T00:12:06.892Z,96605.00
2019-03-13T00:14:36.569Z,96602.03
2019-03-13T00:17:06.182Z,96597.11
2019-03-13T00:19:35.771Z,96591.75
2019-03-13T00:22:09.706Z,96591.10
2019-03-13T00:24:39.386Z,96579.95
2019-03-13T00:27:09.044Z,96581.00
2019-03-13T00:29:38.737Z,96572.21
2019-03-13T00:32:10.030Z,96563.61
2019-03-13T00:34:39.669Z,96556.20
2019-03-13T00:37:09.323Z,96554.52
2019-03-13T00:39:38.979Z,96558.06
2019-03-13T00:42:08.665Z,96553.55
2019-03-13T00:44:38.269Z,96553.28
2019-03-13T00:47:07.886Z,96545.33
2019-03-13T00:49:37.502Z,96534.75
2019-03-13T00:52:07.088Z,96535.41
2019-03-13T00:54:36.737Z,96535.09
2019-03-13T00:57:06.398Z,96530.11
2019-03-13T00:59:35.994Z,96522.02
2019-03-13T01:02:13.003Z,96511.75
2019-03-13T01:04:44.275Z,96505.52
2019-03-13T01:07:13.930Z,96498.17
2019-03-13T01:09:43.596Z,96503.16
2019-03-13T01:12:13.285Z,96500.77
2019-03-13T01:14:42.913Z,96499.37
2019-03-13T01:17:12.591Z,96489.84
2019-03-13T01:19:42.210Z,96487.19
2019-03-13T01:22:11.973Z,96485.22
2019-03-13T01:24:41.556Z,96473.72
2019-03-13T01:27:11.189Z,96461.92
2019-03-13T01:29:40.785Z,96460.11
2019-03-13T01:32:18.219Z,96453.73
2019-03-13T01:34:49.446Z,96455.13
2019-03-13T01:37:19.038Z,96449.89
2019-03-13T01:39:48.698Z,96444.70
2019-03-13T01:42:18.379Z,96447.16
2019-03-13T01:44:47.999Z,96448.02
2019-03-13T01:47:17.592Z,96450.88
2019-03-13T01:49:47.209Z,96445.90
2019-03-13T01:52:16.827Z,96432.56
2019-03-13T01:54:46.421Z,96432.76
2019-03-13T01:57:16.034Z,96425.52
2019-03-13T01:59:45.642Z,96435.24
2019-03-13T02:02:15.239Z,96438.14
2019-03-13T02:04:44.847Z,96434.83
2019-03-13T02:07:14.467Z,96433.06
2019-03-13T02:09:44.082Z,96420.29
2019-03-13T02:12:13.696Z,96414.94
2019-03-13T02:14:43.286Z,96415.38
2019-03-13T02:17:12.868Z,96404.58
2019-03-13T02:19:42.490Z,96401.71
2019-03-13T02:22:12.078Z,96402.48
2019-03-13T02:24:41.693Z,96409.97
2019-03-13T02:27:11.309Z,96401.16
2019-03-13T02:29:40.928Z,96390.98
2019-03-13T02:32:10.515Z,96384.20
2019-03-13T02:34:40.133Z,96374.31
2019-03-13T02:37:09.720Z,96370.03
2019-03-13T02:39:39.333Z,96367.66
2019-03-13T02:42:08.997Z,96363.09
2019-03-13T02:44:38.603Z,96352.81
2019-03-13T02:47:08.294Z,96352.31
2019-03-13T02:49:37.878Z,96364.54
2019-03-13T02:52:07.563Z,96374.69
2019-03-13T02:54:37.173Z,96353.31
2019-03-13T02:57:06.787Z,96355.00
2019-03-13T02:59:36.370Z,96350.87
2019-03-13T03:02:22.530Z,96343.86
2019-03-13T03:04:52.125Z,96346.84
2019-03-13T03:07:21.743Z,96337.63
2019-03-13T03:09:51.354Z,96339.84
2019-03-13T03:12:21.093Z,96333.64
2019-03-13T03:15:02.582Z,96333.27
2019-03-13T03:17:32.268Z,96344.71
2019-03-13T03:20:01.985Z,96344.17
2019-03-13T03:22:31.601Z,96336.05
2019-03-13T03:25:01.254Z,96322.25
2019-03-13T03:27:30.835Z,96330.05
2019-03-13T03:30:00.703Z,96339.67
2019-03-13T03:32:30.423Z,96325.20
2019-03-13T03:35:00.006Z,96323.45
2019-03-13T03:37:29.621Z,96321.69
2019-03-13T03:39:59.220Z,96314.23
2019-03-13T03:42:29.245Z,96312.03
2019-03-13T03:44:58.851Z,96309.05
2019-03-13T03:47:28.441Z,96314.19
2019-03-13T03:49:58.058Z,96314.19
2019-03-13T03:52:27.644Z,96316.05
2019-03-13T03:54:57.250Z,96316.73
2019-03-13T03:57:26.866Z,96322.07
2019-03-13T03:59:56.557Z,96324.14
2019-03-13T04:02:26.238Z,96315.16
2019-03-13T04:04:55.923Z,96307.99
2019-03-13T04:07:25.773Z,96303.38
2019-03-13T04:09:55.459Z,96298.55
2019-03-13T04:12:25.051Z,96301.62
2019-03-13T04:14:54.660Z,96297.31
2019-03-13T04:17:24.277Z,96285.66
2019-03-13T04:19:53.869Z,96283.58
2019-03-13T04:22:23.514Z,96272.60
2019-03-13T04:24:54.327Z,96264.72
2019-03-13T04:27:24.018Z,96261.43
2019-03-13T04:29:53.679Z,96263.14
2019-03-13T04:32:23.277Z,96266.53
2019-03-13T04:34:52.882Z,96269.17
2019-03-13T04:37:22.584Z,96272.00
2019-03-13T04:39:52.173Z,96281.28
2019-03-13T04:42:21.790Z,96284.20
2019-03-13T04:44:51.410Z,96289.64
2019-03-13T04:47:21.022Z,96282.88
2019-03-13T04:49:50.614Z,96273.17
2019-03-13T04:52:20.230Z,96259.00
2019-03-13T04:54:49.838Z,96264.06
2019-03-13T04:57:19.424Z,96260.19
2019-03-13T04:59:49.042Z,96263.66
2019-03-13T05:02:18.704Z,96262.44
2019-03-13T05:04:48.289Z,96270.31
2019-03-13T05:07:17.894Z,96267.61
2019-03-13T05:09:47.512Z,96274.09
2019-03-13T05:12:17.100Z,96269.44
2019-03-13T05:14:46.725Z,96268.55
2019-03-13T05:17:16.307Z,96262.14
2019-03-13T05:19:45.889Z,96259.20
2019-03-13T05:22:15.512Z,96262.69
2019-03-13T05:24:45.129Z,96271.67
2019-03-13T05:27:14.724Z,96276.02
2019-03-13T05:29:44.343Z,96278.79
2019-03-13T05:32:13.935Z,96271.95
2019-03-13T05:34:43.593Z,96279.54
2019-03-13T05:37:13.203Z,96288.14
2019-03-13T05:39:42.793Z,96291.19
2019-03-13T05:42:12.474Z,96288.59
2019-03-13T05:44:42.154Z,96275.61
2019-03-13T05:47:11.764Z,96286.58
2019-03-13T05:49:41.379Z,96286.98
2019-03-13T05:52:11.000Z,96285.80
2019-03-13T05:54:40.638Z,96288.79
2019-03-13T05:57:10.234Z,96291.95
2019-03-13T05:59:39.820Z,96291.94
2019-03-13T06:02:09.573Z,96302.14
2019-03-13T06:04:39.260Z,96309.87
2019-03-13T06:07:08.875Z,96311.97
2019-03-13T06:09:38.456Z,96317.77
2019-03-13T06:12:08.042Z,96320.01
2019-03-13T06:14:37.673Z,96319.03
2019-03-13T06:17:07.246Z,96321.86
2019-03-13T06:19:36.855Z,96331.65
2019-03-13T06:22:06.479Z,96335.55
2019-03-13T06:24:36.093Z,96340.34
2019-03-13T06:27:05.677Z,96343.31
2019-03-13T06:29:35.294Z,96337.91
2019-03-13T06:32:04.909Z,96346.15
2019-03-13T06:34:34.501Z,96343.75
2019-03-13T06:37:04.116Z,96355.58
2019-03-13T06:39:33.798Z,96350.42
2019-03-13T06:42:03.484Z,96351.48
2019-03-13T06:44:33.102Z,96344.26
2019-03-13T06:47:02.715Z,96342.28
2019-03-13T06:49:32.561Z,96339.50
2019-03-13T06:52:02.238Z,96343.41
2019-03-13T06:54:32.160Z,96343.88
2019-03-13T06:57:01.762Z,96347.47
2019-03-13T06:59:32.987Z,96347.69
2019-03-13T07:02:04.254Z,96350.55
2019-03-13T07:04:51.067Z,96352.58
2019-03-13T07:07:22.323Z,96348.44
2019-03-13T07:09:59.515Z,96354.63
2019-03-13T07:12:28.915Z,96352.73
2019-03-13T07:15:02.814Z,96355.84
2019-03-13T07:17:39.677Z,96356.51
2019-03-13T07:20:18.806Z,96351.42
2019-03-13T07:22:50.037Z,96346.34
2019-03-13T07:25:37.296Z,96347.66
2019-03-13T07:28:14.311Z,96339.77
2019-03-13T07:30:50.969Z,96333.18
2019-03-13T07:33:31.933Z,96330.50
2019-03-13T07:36:06.200Z,96326.20
2019-03-13T07:38:43.295Z,96328.06
2019-03-13T07:41:23.636Z,96314.51
2019-03-13T07:44:09.848Z,96315.33
2019-03-13T07:46:53.298Z,96318.92
2019-03-13T07:49:27.153Z,96317.23
2019-03-13T07:52:04.355Z,96321.70
2019-03-13T07:54:53.821Z,96326.02
2019-03-13T07:57:30.904Z,96331.83
2019-03-13T08:00:02.170Z,96334.78
2019-03-13T08:02:42.663Z,96342.19
2019-03-13T08:05:14.844Z,96349.02
2019-03-13T08:07:55.247Z,96351.48
2019-03-13T08:10:24.608Z,96351.16
2019-03-13T08:13:11.009Z,96352.63
2019-03-13T08:15:42.293Z,96351.33
2019-03-13T08:18:29.955Z,96352.33
2019-03-13T08:20:59.350Z,96348.52
2019-03-13T08:23:36.271Z,96340.57
2019-03-13T08:26:07.662Z,96352.85
2019-03-13T08:28:48.040Z,96354.84
2019-03-13T08:31:19.342Z,96351.17
2019-03-13T08:34:03.656Z,96353.67
2019-03-13T08:36:46.760Z,96354.02
2019-03-13T08:39:20.870Z,96359.30
2019-03-13T08:42:08.321Z,96361.12
2019-03-13T08:44:40.272Z,96358.37
2019-03-13T08:47:11.500Z,96360.50
2019-03-13T08:49:54.945Z,96360.69
2019-03-13T08:52:26.183Z,96358.37
2019-03-13T08:55:00.603Z,96354.58
2019-03-13T08:57:34.482Z,96363.83
2019-03-13T09:00:10.131Z,96374.94
2019-03-13T09:02:41.366Z,96378.73
2019-03-13T09:05:13.572Z,96378.69
2019-03-13T09:07:44.799Z,96385.36
2019-03-13T09:10:22.569Z,96385.45
2019-03-13T09:13:01.374Z,96389.42
2019-03-13T09:15:42.133Z,96392.72
2019-03-13T09:18:13.458Z,96384.94
2019-03-13T09:21:00.862Z,96387.25
2019-03-13T09:23:41.069Z,96383.11
2019-03-13T09:26:28.325Z,96382.16
2019-03-13T09:28:59.552Z,96394.53
2019-03-13T09:31:33.467Z,96403.75
2019-03-13T09:34:04.706Z,96404.27
2019-03-13T09:36:36.967Z,96412.71
2019-03-13T09:39:09.285Z,96413.03
2019-03-13T09:41:43.344Z,96409.05
2019-03-13T09:44:26.617Z,96414.03
2019-03-13T09:47:00.455Z,96421.84
2019-03-13T09:49:40.371Z,96426.47
2019-03-13T09:52:11.595Z,96439.53
2019-03-13T09:54:48.294Z,96448.63
2019-03-13T09:57:17.687Z,96451.41
2019-03-13T09:59:47.043Z,96447.16
2019-03-13T10:02:26.868Z,96445.16
2019-03-13T10:04:56.264Z,96447.48
2019-03-13T10:07:37.653Z,96448.98
2019-03-13T10:10:25.181Z,96454.11
2019-03-13T10:12:56.404Z,96451.14
2019-03-13T10:15:27.663Z,96452.62
2019-03-13T10:18:04.594Z,96452.64
2019-03-13T10:20:35.850Z,96450.95
2019-03-13T10:23:23.060Z,96457.70
2019-03-13T10:25:57.001Z,96449.63
2019-03-13T10:28:28.413Z,96455.11
2019-03-13T10:31:14.275Z,96463.59
2019-03-13T10:33:45.528Z,96460.40
2019-03-13T10:36:20.535Z,96465.50
2019-03-13T10:38:49.923Z,96469.45
2019-03-13T10:41:21.926Z,96469.86
2019-03-13T10:43:53.340Z,96471.67
2019-03-13T10:46:22.731Z,96466.72
2019-03-13T10:48:53.986Z,96470.53
2019-03-13T10:51:34.075Z,96477.67
2019-03-13T10:54:05.403Z,96474.69
2019-03-13T10:56:45.533Z,96472.19
2019-03-13T10:59:22.448Z,96470.05
2019-03-13T11:01:53.781Z,96455.59
2019-03-13T11:04:42.776Z,96453.79
2019-03-13T11:07:16.648Z,96452.78
2019-03-13T11:09:46.010Z,96447.84
2019-03-13T11:12:35.208Z,96448.45
2019-03-13T11:15:09.739Z,96442.82
2019-03-13T11:17:52.653Z,96451.91
2019-03-13T11:20:24.631Z,96457.56
2019-03-13T11:23:01.349Z,96454.76
2019-03-13T11:25:35.201Z,96452.42
2019-03-13T11:28:15.427Z,96450.77
2019-03-13T11:30:46.723Z,96444.30
2019-03-13T11:33:16.172Z,96442.83
2019-03-13T11:35:50.217Z,96431.89
2019-03-13T11:38:24.434Z,96433.73
2019-03-13T11:41:10.568Z,96433.89
2019-03-13T11:43:41.895Z,96434.57
2019-03-13T11:46:28.688Z,96424.45
2019-03-13T11:48:59.943Z,96433.57
2019-03-13T11:51:49.142Z,96428.27
2019-03-13T11:54:23.045Z,96429.91
2019-03-13T11:56:52.414Z,96433.25
2019-03-13T11:59:26.152Z,96427.29
2019-03-13T12:02:00.308Z,96427.77
2019-03-13T12:04:34.299Z,96426.61
2019-03-13T12:07:08.313Z,96425.89
2019-03-13T12:09:41.423Z,96424.58
2019-03-13T12:12:24.902Z,96419.47
2019-03-13T12:15:08.055Z,96414.81
2019-03-13T12:17:41.774Z,96414.16
2019-03-13T12:20:15.938Z,96402.22
2019-03-13T12:22:52.680Z,96404.13
2019-03-13T12:25:26.392Z,96404.17
2019-03-13T12:27:57.617Z,96399.05
2019-03-13T12:30:37.672Z,96398.66
2019-03-13T12:33:08.970Z,96398.97
2019-03-13T12:35:55.894Z,96408.17
2019-03-13T12:42:07.440Z,96394.72
2019-03-13T12:44:47.865Z,96400.05
2019-03-13T12:47:28.259Z,96392.56
2019-03-13T12:50:15.502Z,96394.52
2019-03-13T12:52:53.486Z,96397.73
2019-03-13T12:55:24.812Z,96408.94
2019-03-13T12:57:56.041Z,96403.48
2019-03-13T13:00:42.256Z,96401.96
2019-03-13T13:03:22.493Z,96398.49
2019-03-13T13:05:53.716Z,96390.40
2019-03-13T13:08:27.630Z,96394.23
2019-03-13T13:11:04.648Z,96395.41
2019-03-13T13:13:51.736Z,96382.25
2019-03-13T13:16:26.789Z,96380.87
2019-03-13T13:18:56.446Z,96372.18
2019-03-13T13:21:26.053Z,96375.77
2019-03-13T13:23:55.711Z,96383.55
2019-03-13T13:26:25.487Z,96378.98
2019-03-13T13:28:55.088Z,96377.39
2019-03-13T13:31:24.682Z,96377.02
2019-03-13T13:33:54.368Z,96380.61
2019-03-13T13:36:26.641Z,96377.98
2019-03-13T13:38:55.258Z,96373.50
2019-03-13T13:41:24.875Z,96377.02
2019-03-13T13:43:54.471Z,96381.22
2019-03-13T13:46:27.190Z,96376.08
2019-03-13T13:48:56.773Z,96370.27
2019-03-13T13:51:26.448Z,96364.13
2019-03-13T13:53:56.081Z,96364.00
2019-03-13T13:56:25.726Z,96367.66
2019-03-13T13:58:55.338Z,96369.00
2019-03-13T14:01:25.064Z,96369.92
2019-03-13T14:03:54.748Z,96373.78
2019-03-13T14:06:24.480Z,96366.98
2019-03-13T14:08:54.157Z,96367.20
2019-03-13T14:11:23.777Z,96366.52
2019-03-13T14:13:53.363Z,96367.06
2019-03-13T14:16:23.037Z,96366.58
2019-03-13T14:18:52.716Z,96372.77
2019-03-13T14:21:22.302Z,96373.25
2019-03-13T14:23:51.985Z,96379.56
2019-03-13T14:26:21.580Z,96377.91
2019-03-13T14:28:51.266Z,96372.94
2019-03-13T14:31:20.916Z,96372.28
2019-03-13T14:33:50.798Z,96373.28
2019-03-13T14:36:22.045Z,96377.91
2019-03-13T14:38:51.656Z,96379.56
2019-03-13T14:41:21.308Z,96376.59
2019-03-13T14:43:50.922Z,96370.12
2019-03-13T14:46:20.510Z,96371.57
2019-03-13T14:48:50.125Z,96367.31
2019-03-13T14:51:19.747Z,96363.65
2019-03-13T14:53:49.327Z,96360.27
2019-03-13T14:56:18.944Z,96365.94
2019-03-13T14:58:48.528Z,96368.91
2019-03-13T15:01:18.138Z,96368.07
2019-03-13T15:03:47.725Z,96370.03
2019-03-13T15:06:17.334Z,96371.34
2019-03-13T15:08:46.922Z,96368.74
2019-03-13T15:11:16.541Z,96370.08
2019-03-13T15:13:46.143Z,96364.57
2019-03-13T15:16:15.730Z,96370.76
2019-03-13T15:18:45.340Z,96366.72
2019-03-13T15:21:14.924Z,96365.87
2019-03-13T15:23:44.631Z,96358.94
2019-03-13T15:26:14.285Z,96362.52
2019-03-13T15:28:43.875Z,96357.20
2019-03-13T15:31:13.485Z,96367.66
2019-03-13T15:33:43.108Z,96357.20
2019-03-13T15:36:12.690Z,96358.23
2019-03-13T15:38:42.276Z,96349.63
2019-03-13T15:41:11.899Z,96356.27
2019-03-13T15:43:41.505Z,96352.95
2019-03-13T15:46:11.098Z,96359.24
2019-03-13T15:48:40.700Z,96358.79
2019-03-13T15:51:10.290Z,96358.67
2019-03-13T15:53:39.905Z,96359.84
2019-03-13T15:56:09.520Z,96361.64
2019-03-13T15:58:39.148Z,96369.27
2019-03-13T16:01:09.201Z,96365.30
2019-03-13T16:03:38.833Z,96359.48
2019-03-13T16:06:08.448Z,96359.31
2019-03-13T16:08:38.072Z,96357.66
2019-03-13T16:11:07.696Z,96356.49
2019-03-13T16:13:37.285Z,96355.00
2019-03-13T16:16:07.036Z,96354.95
2019-03-13T16:18:36.632Z,96350.17
2019-03-13T16:21:06.382Z,96349.02
2019-03-13T16:23:35.970Z,96353.77
2019-03-13T16:26:05.656Z,96352.95
2019-03-13T16:28:35.241Z,96349.02
2019-03-13T16:31:05.033Z,96360.47
2019-03-13T16:33:34.650Z,96356.34
2019-03-13T16:36:04.301Z,96353.31
2019-03-13T16:38:33.914Z,96355.17
2019-03-13T16:41:03.540Z,96354.31
2019-03-13T16:43:33.119Z,96363.61
2019-03-13T16:46:02.765Z,96368.36
2019-03-13T16:48:32.379Z,96359.78
2019-03-13T16:51:01.972Z,96363.61
2019-03-13T16:53:31.579Z,96377.55
2019-03-13T16:56:01.163Z,96372.09
2019-03-13T16:58:30.769Z,96373.74
2019-03-13T17:01:00.382Z,96383.54
2019-03-13T17:03:29.972Z,96386.70
2019-03-13T17:05:59.581Z,96390.48
2019-03-13T17:08:29.195Z,96400.12
2019-03-13T17:10:58.806Z,96397.98
2019-03-13T17:13:28.391Z,96403.59
2019-03-13T17:15:58.037Z,96401.63
2019-03-13T17:18:27.713Z,96399.80
2019-03-13T17:20:57.478Z,96397.95
2019-03-13T17:23:27.088Z,96397.45
2019-03-13T17:25:56.765Z,96408.22
2019-03-13T17:28:26.354Z,96401.26
2019-03-13T17:30:55.964Z,96400.77
2019-03-13T17:33:25.642Z,96393.00
2019-03-13T17:35:55.229Z,96405.91
2019-03-13T17:38:24.854Z,96404.58
2019-03-13T17:40:54.441Z,96414.52
2019-03-13T17:43:24.031Z,96420.66
2019-03-13T17:45:53.703Z,96418.99
2019-03-13T17:48:23.337Z,96419.35
2019-03-13T17:50:52.926Z,96418.18
2019-03-13T17:53:22.541Z,96420.66
2019-03-13T17:55:52.187Z,96422.13
2019-03-13T17:58:22.815Z,96422.30
2019-03-13T18:00:54.248Z,96422.31
2019-03-13T18:03:25.197Z,96419.34
2019-03-13T18:05:54.810Z,96415.00
2019-03-13T18:08:24.395Z,96413.36
2019-03-13T18:10:54.003Z,96417.48
2019-03-13T18:13:23.626Z,96410.06
2019-03-13T18:15:53.239Z,96420.00
2019-03-13T18:18:22.825Z,96421.31
2019-03-13T18:20:52.509Z,96420.98
2019-03-13T18:23:22.097Z,96422.30
2019-03-13T18:25:51.696Z,96426.94
2019-03-13T18:28:21.315Z,96431.55
2019-03-13T18:30:50.935Z,96426.26
2019-03-13T18:33:20.629Z,96428.92
2019-03-13T18:35:50.333Z,96431.71
2019-03-13T18:38:19.909Z,96433.05
2019-03-13T18:40:49.505Z,96426.10
2019-03-13T18:43:19.193Z,96432.88
2019-03-13T18:45:48.779Z,96430.08
2019-03-13T18:48:18.399Z,96427.25
2019-03-13T18:50:48.091Z,96423.44
2019-03-13T18:53:17.702Z,96425.27
2019-03-13T18:55:47.323Z,96426.89
2019-03-13T18:58:16.906Z,96422.80
2019-03-13T19:00:46.599Z,96426.95
2019-03-13T19:03:16.336Z,96422.64
2019-03-13T19:05:45.947Z,96419.63
2019-03-13T19:08:15.533Z,96414.83
2019-03-13T19:10:45.124Z,96410.20
2019-03-13T19:13:14.767Z,96404.85
2019-03-13T19:15:44.358Z,96405.52
2019-03-13T19:18:13.956Z,96410.69
2019-03-13T19:20:43.639Z,96416.91
2019-03-13T19:23:14.390Z,96416.56
2019-03-13T19:25:44.238Z,96421.05
2019-03-13T19:28:13.866Z,96418.39
2019-03-13T19:30:43.462Z,96420.86
2019-03-13T19:33:13.151Z,96414.76
2019-03-13T19:35:42.770Z,96416.25
2019-03-13T19:38:16.809Z,96415.59
2019-03-13T19:40:46.419Z,96418.19
2019-03-13T19:43:16.005Z,96407.64
2019-03-13T19:45:49.222Z,96413.08
2019-03-13T19:48:18.814Z,96417.77
2019-03-13T19:50:48.512Z,96418.25
2019-03-13T19:53:18.171Z,96416.06
2019-03-13T19:55:47.791Z,96416.83
2019-03-13T19:58:17.530Z,96420.52
2019-03-13T20:00:47.275Z,96418.06
2019-03-13T20:03:18.591Z,96417.59
2019-03-13T20:05:48.247Z,96422.28
2019-03-13T20:08:17.928Z,96436.42
2019-03-13T20:10:47.626Z,96429.29
2019-03-13T20:13:17.270Z,96428.52
2019-03-13T20:15:46.859Z,96424.22
2019-03-13T20:18:16.557Z,96430.51
2019-03-13T20:20:46.299Z,96423.09
2019-03-13T20:23:17.800Z,96426.86
2019-03-13T20:25:47.566Z,96415.31
2019-03-13T20:28:17.356Z,96419.78
2019-03-13T20:30:47.004Z,96419.11
2019-03-13T20:33:16.621Z,96420.13
2019-03-13T20:35:46.359Z,96417.44
2019-03-13T20:38:16.052Z,96417.42
2019-03-13T20:40:45.818Z,96414.26
2019-03-13T20:43:15.817Z,96417.16
2019-03-13T20:45:45.509Z,96414.50
2019-03-13T20:48:15.195Z,96418.48
2019-03-13T20:50:44.885Z,96413.02
2019-03-13T20:53:14.572Z,96413.01
2019-03-13T20:55:44.182Z,96411.70
2019-03-13T20:58:13.809Z,96405.71
2019-03-13T21:00:43.466Z,96406.00
2019-03-13T21:03:13.055Z,96407.03
2019-03-13T21:05:42.681Z,96402.08
2019-03-13T21:08:12.298Z,96398.43
2019-03-13T21:10:41.936Z,96396.77
2019-03-13T21:13:11.532Z,96401.08
2019-03-13T21:15:43.571Z,96392.09
2019-03-13T21:18:12.458Z,96395.56
2019-03-13T21:20:42.121Z,96397.39
2019-03-13T21:23:11.740Z,96393.59
2019-03-13T21:25:41.361Z,96398.10
2019-03-13T21:28:11.055Z,96403.40
2019-03-13T21:30:40.715Z,96397.77
2019-03-13T21:33:10.310Z,96391.48
2019-03-13T21:35:39.925Z,96404.23
2019-03-13T21:38:09.542Z,96398.61
2019-03-13T21:40:39.162Z,96398.23
2019-03-13T21:43:08.788Z,96394.25
2019-03-13T21:45:41.378Z,96395.73
2019-03-13T21:48:09.726Z,96391.48
2019-03-13T21:50:39.360Z,96387.94
2019-03-13T21:53:09.217Z,96381.29
2019-03-13T21:55:38.816Z,96381.62
2019-03-13T21:58:08.408Z,96381.95
2019-03-13T22:00:38.098Z,96379.66
2019-03-13T22:03:07.788Z,96376.80
2019-03-13T22:05:37.412Z,96383.42
2019-03-13T22:08:07.075Z,96384.11
2019-03-13T22:10:36.892Z,96385.64
2019-03-13T22:13:06.639Z,96381.16
2019-03-13T22:15:36.377Z,96378.97
2019-03-13T22:18:05.987Z,96383.95
2019-03-13T22:20:35.614Z,96385.93
2019-03-13T22:23:05.388Z,96378.53
2019-03-13T22:25:34.992Z,96380.17
2019-03-13T22:28:04.641Z,96382.69
2019-03-13T22:30:34.308Z,96373.20
2019-03-13T22:33:04.006Z,96380.33
2019-03-13T22:35:33.609Z,96379.35
2019-03-13T22:38:03.223Z,96377.52
2019-03-13T22:40:32.817Z,96371.53
2019-03-13T22:43:02.440Z,96376.33
2019-03-13T22:45:32.035Z,96367.91
2019-03-13T22:48:01.648Z,96361.44
2019-03-13T22:50:31.336Z,96362.59
2019-03-13T22:53:00.959Z,96361.06
2019-03-13T22:55:30.570Z,96369.65
2019-03-13T22:58:01.516Z,96370.97
2019-03-13T23:00:50.273Z,96370.80
2019-03-13T23:03:21.747Z,96369.41
2019-03-13T23:05:51.473Z,96363.77
2019-03-13T23:08:21.233Z,96365.69
2019-03-13T23:10:51.076Z,96361.14
2019-03-13T23:13:20.785Z,96367.78
2019-03-13T23:15:50.451Z,96364.48
2019-03-13T23:18:20.107Z,96358.89
2019-03-13T23:20:49.727Z,96361.38
2019-03-13T23:23:19.415Z,96355.38
2019-03-13T23:25:49.016Z,96354.33
2019-03-13T23:28:18.634Z,96350.87
2019-03-13T23:30:48.303Z,96350.39
2019-03-13T23:33:17.928Z,96344.34
2019-03-13T23:35:47.515Z,96335.50
2019-03-13T23:38:17.204Z,96332.95
2019-03-13T23:40:46.863Z,96334.42
2019-03-13T23:43:16.458Z,96341.23
2019-03-13T23:45:46.093Z,96334.55
2019-03-13T23:48:15.758Z,96330.94
2019-03-13T23:50:45.343Z,96331.88
2019-03-13T23:53:14.978Z,96337.00
2019-03-13T23:55:44.571Z,96345.30
2019-03-13T23:58:14.235Z,96345.30
